Time;durP1;ratioP1;P1;durP2;ratioP2;P2;SDS_P1;SDS_P2;PMS_P1;PMS_P2;Temp;Humidity;BMP_temperature;BMP_pressure;BME280_temperature;BME280_humidity;BME280_pressure;Samples;Min_cycle;Max_cycle;Signal;HPM_P1;HPM_P2
2023/03/08 00:00:27;;;;;;;9.40;6.85;;;;;;;-0.87;100.00;99201.91;5008756;28;20153;-83
2023/03/08 00:02:55;;;;;;;7.65;5.80;;;;;;;-0.94;100.00;99212.94;5008536;28;20054;-79
2023/03/08 00:05:22;;;;;;;9.05;6.38;;;;;;;-0.89;100.00;99214.72;4992899;28;20053;-78
2023/03/08 00:07:52;;;;;;;9.18;5.82;;;;;;;-0.87;100.00;99219.91;5004791;28;20061;-78
2023/03/08 00:10:18;;;;;;;10.25;6.68;;;;;;;-0.74;100.00;99218.38;4980202;28;20372;-81
2023/03/08 00:12:45;;;;;;;9.68;5.78;;;;;;;-0.72;100.00;99221.81;4995685;28;20501;-78
2023/03/08 00:15:12;;;;;;;10.80;6.28;;;;;;;-0.63;100.00;99213.34;4985338;28;20053;-85
2023/03/08 00:17:40;;;;;;;8.82;5.72;;;;;;;-0.67;100.00;99223.56;4991381;28;20048;-77
2023/03/08 00:20:09;;;;;;;7.70;5.60;;;;;;;-0.62;100.00;99218.50;5005045;28;20613;-77
2023/03/08 00:22:40;;;;;;;12.73;5.72;;;;;;;-0.70;100.00;99218.41;4971807;28;20618;-76
2023/03/08 00:25:08;;;;;;;11.18;5.72;;;;;;;-0.73;100.00;99225.22;4973959;28;20073;-77
2023/03/08 00:27:40;;;;;;;9.25;6.05;;;;;;;-0.79;100.00;99230.28;4992347;28;20046;-81
2023/03/08 00:30:08;;;;;;;7.68;5.28;;;;;;;-0.78;100.00;99230.31;5006042;28;20121;-76
2023/03/08 00:32:34;;;;;;;7.57;4.20;;;;;;;-0.73;100.00;99231.22;5010744;28;20057;-78
2023/03/08 00:35:01;;;;;;;7.90;5.88;;;;;;;-0.69;100.00;99239.84;4976501;28;20100;-83
2023/03/08 00:37:28;;;;;;;7.05;4.97;;;;;;;-0.65;100.00;99236.47;4971190;28;20053;-77
2023/03/08 00:39:55;;;;;;;6.80;4.30;;;;;;;-0.59;100.00;99233.97;4985665;28;20700;-76
2023/03/08 00:42:22;;;;;;;8.50;4.55;;;;;;;-0.59;100.00;99238.25;4973898;28;20046;-77
2023/03/08 00:44:49;;;;;;;10.63;5.53;;;;;;;-0.57;100.00;99228.88;4991753;28;20135;-78
2023/03/08 00:47:15;;;;;;;10.93;3.65;;;;;;;-0.48;100.00;99233.25;4972900;28;20139;-79
2023/03/08 00:49:43;;;;;;;6.43;4.53;;;;;;;-0.63;100.00;99234.78;4991611;28;20041;-77
2023/03/08 00:52:10;;;;;;;9.10;5.47;;;;;;;-0.85;100.00;99243.88;5003227;28;20067;-76
2023/03/08 00:54:37;;;;;;;10.75;4.07;;;;;;;-1.01;100.00;99247.94;4990308;28;20049;-78
2023/03/08 00:57:06;;;;;;;6.88;3.95;;;;;;;-1.13;100.00;99240.03;4991391;28;20033;-77
2023/03/08 00:59:33;;;;;;;4.40;3.63;;;;;;;-1.22;100.00;99256.19;5005549;28;20052;-81
2023/03/08 01:02:00;;;;;;;5.32;3.88;;;;;;;-1.28;100.00;99250.94;5006169;28;20033;-79
2023/03/08 01:04:27;;;;;;;5.47;3.63;;;;;;;-1.33;100.00;99256.88;4992058;28;20048;-76
2023/03/08 01:06:53;;;;;;;6.05;4.13;;;;;;;-1.39;100.00;99253.34;4975162;28;20088;-83
2023/03/08 01:09:20;;;;;;;7.22;3.72;;;;;;;-1.49;100.00;99249.75;4987426;28;20053;-77
2023/03/08 01:11:46;;;;;;;8.80;3.92;;;;;;;-1.46;100.00;99254.06;4989669;28;20045;-76
2023/03/08 01:14:13;;;;;;;12.45;4.03;;;;;;;-1.48;100.00;99253.19;4981509;28;20049;-78
2023/03/08 01:16:41;;;;;;;7.00;3.75;;;;;;;-1.48;100.00;99245.50;4990424;28;20056;-76
2023/03/08 01:19:07;;;;;;;6.30;3.30;;;;;;;-1.45;100.00;99238.69;4991764;28;20061;-79
2023/03/08 01:21:34;;;;;;;6.72;3.85;;;;;;;-1.39;100.00;99243.94;5010752;28;20045;-77
2023/03/08 01:24:00;;;;;;;4.78;2.97;;;;;;;-1.12;100.00;99244.34;4993036;28;20053;-75
2023/03/08 01:26:27;;;;;;;3.10;2.80;;;;;;;-0.95;100.00;99236.88;5010456;28;20121;-78
2023/03/08 01:28:54;;;;;;;6.20;3.17;;;;;;;-0.84;100.00;99233.63;5002916;28;20515;-81
2023/03/08 01:31:29;;;;;;;4.63;3.00;;;;;;;-0.78;100.00;99234.56;4990067;28;20503;-76
2023/03/08 01:33:56;;;;;;;9.50;3.72;;;;;;;-0.77;100.00;99229.47;4984374;28;20042;-80
2023/03/08 01:36:26;;;;;;;8.10;3.25;;;;;;;-0.78;100.00;99225.16;4988618;28;20042;-76
2023/03/08 01:38:53;;;;;;;3.65;3.28;;;;;;;-0.78;100.00;99227.72;4970982;28;20594;-80
2023/03/08 01:41:30;;;;;;;4.47;3.30;;;;;;;-0.81;100.00;99234.53;4991255;28;20052;-76
2023/03/08 01:43:57;;;;;;;3.88;3.47;;;;;;;-0.89;100.00;99229.28;4984512;28;20058;-77
2023/03/08 01:46:28;;;;;;;6.10;4.20;;;;;;;-0.97;100.00;99225.75;5003998;28;20551;-81
2023/03/08 01:49:05;;;;;;;6.30;3.40;;;;;;;-0.97;100.00;99215.47;4987064;28;20050;-79
2023/03/08 01:51:56;;;;;;;3.95;2.88;;;;;;;-1.03;100.00;99222.25;5004391;28;20465;-76
2023/03/08 01:54:28;;;;;;;8.55;3.35;;;;;;;-1.07;100.00;99219.59;4995468;28;20046;-77
2023/03/08 01:57:02;;;;;;;4.22;2.53;;;;;;;-1.11;100.00;99212.69;4999152;28;20097;-77
2023/03/08 01:59:33;;;;;;;5.88;2.85;;;;;;;-1.21;100.00;99209.13;5005951;28;20049;-82
2023/03/08 02:02:00;;;;;;;4.25;2.92;;;;;;;-1.39;100.00;99217.41;4990263;28;20042;-76
2023/03/08 02:04:27;;;;;;;5.28;3.08;;;;;;;-1.51;100.00;99215.50;4989632;28;20038;-77
2023/03/08 02:06:53;;;;;;;5.15;3.67;;;;;;;-1.65;100.00;99214.41;4994441;28;20096;-81
2023/03/08 02:09:21;;;;;;;5.60;3.25;;;;;;;-1.80;100.00;99210.72;4987902;28;20073;-78
2023/03/08 02:11:49;;;;;;;4.50;2.83;;;;;;;-1.84;100.00;99214.94;4973789;28;20042;-77
2023/03/08 02:14:15;;;;;;;13.60;5.30;;;;;;;-1.91;100.00;99205.41;5007348;28;20538;-75
2023/03/08 02:16:42;;;;;;;5.13;3.50;;;;;;;-1.92;100.00;99211.34;5008257;28;20046;-77
2023/03/08 02:19:19;;;;;;;6.53;4.13;;;;;;;-1.93;100.00;99208.78;4993441;28;20121;-80
2023/03/08 02:21:45;;;;;;;6.85;3.38;;;;;;;-1.92;100.00;99213.06;5005824;28;20049;-80
2023/03/08 02:24:24;;;;;;;4.28;2.78;;;;;;;-1.90;100.00;99208.84;4995099;28;20043;-77
2023/03/08 02:27:03;;;;;;;4.22;3.33;;;;;;;-1.89;100.00;99208.88;4995956;28;20096;-75
2023/03/08 02:29:29;;;;;;;6.53;4.97;;;;;;;-1.84;100.00;99207.25;4991946;28;20050;-78
2023/03/08 02:31:56;;;;;;;4.45;3.15;;;;;;;-1.93;100.00;99206.22;4981123;28;20045;-75
2023/03/08 02:34:22;;;;;;;6.82;3.30;;;;;;;-1.98;100.00;99205.25;4998570;28;20053;-78
2023/03/08 02:36:49;;;;;;;7.30;3.20;;;;;;;-2.02;100.00;99206.91;5008211;28;20042;-81
2023/03/08 02:39:15;;;;;;;5.05;3.67;;;;;;;-2.12;100.00;99205.88;4991379;28;20038;-76
2023/03/08 02:41:42;;;;;;;8.60;5.15;;;;;;;-2.19;100.00;99202.34;5007558;28;20046;-75
2023/03/08 02:44:08;;;;;;;5.55;4.50;;;;;;;-2.18;100.00;99204.06;5007581;28;20045;-80
2023/03/08 02:46:35;;;;;;;7.15;5.60;;;;;;;-2.17;100.00;99200.66;4996547;28;20062;-81
2023/03/08 02:49:01;;;;;;;7.65;5.18;;;;;;;-2.18;100.00;99192.94;5009124;28;20100;-80
2023/03/08 02:51:28;;;;;;;5.60;5.07;;;;;;;-2.21;100.00;99191.19;4992046;28;20049;-74
2023/03/08 02:53:54;;;;;;;12.55;6.35;;;;;;;-2.24;100.00;99188.56;4989668;28;20413;-76
2023/03/08 02:56:21;;;;;;;9.10;5.97;;;;;;;-2.25;100.00;99194.53;4986255;28;20042;-80
2023/03/08 02:58:48;;;;;;;10.18;6.72;;;;;;;-2.26;100.00;99191.94;4988629;28;20047;-79
2023/03/08 03:01:15;;;;;;;11.30;6.30;;;;;;;-2.31;100.00;99190.97;4990011;28;20050;-85
2023/03/08 03:03:44;;;;;;;11.07;6.63;;;;;;;-2.32;100.00;99202.94;5005409;28;20080;-78
2023/03/08 03:06:16;;;;;;;9.38;6.35;;;;;;;-2.29;100.00;99194.44;4987975;28;20459;-75
2023/03/08 03:08:43;;;;;;;10.63;6.70;;;;;;;-2.35;100.00;99196.06;4990550;28;20046;-76
2023/03/08 03:11:21;;;;;;;8.93;5.63;;;;;;;-2.34;100.00;99191.78;5009497;28;20053;-78
2023/03/08 03:13:54;;;;;;;7.60;5.53;;;;;;;-2.28;100.00;99189.34;4996205;28;20046;-84
2023/03/08 03:16:21;;;;;;;9.93;6.38;;;;;;;-2.21;100.00;99193.75;5004793;28;20053;-75
2023/03/08 03:18:47;;;;;;;8.25;5.38;;;;;;;-2.16;100.00;99196.41;4993233;28;20041;-76
2023/03/08 03:21:14;;;;;;;9.57;5.68;;;;;;;-2.07;100.00;99195.72;5008449;28;20125;-78
2023/03/08 03:23:41;;;;;;;9.82;5.55;;;;;;;-2.12;100.00;99198.19;4990030;28;20393;-79
2023/03/08 03:26:13;;;;;;;8.30;5.25;;;;;;;-2.14;100.00;99199.84;5006613;28;20501;-81
2023/03/08 03:28:40;;;;;;;9.32;6.00;;;;;;;-2.17;100.00;99198.09;4990357;28;20048;-76
2023/03/08 03:31:17;;;;;;;6.43;4.88;;;;;;;-2.19;100.00;99192.09;4998340;28;20042;-75
2023/03/08 03:33:45;;;;;;;7.30;5.03;;;;;;;-2.20;100.00;99194.63;4989941;28;20030;-78
2023/03/08 03:36:15;;;;;;;9.90;5.28;;;;;;;-2.16;100.00;99192.13;4972531;28;20447;-75
2023/03/08 03:38:42;;;;;;;6.57;5.13;;;;;;;-2.17;100.00;99189.53;4992329;28;20049;-78
2023/03/08 03:41:16;;;;;;;8.55;4.72;;;;;;;-2.17;100.00;99192.09;4988674;28;20446;-79
2023/03/08 03:43:43;;;;;;;9.57;5.20;;;;;;;-2.13;100.00;99193.88;4991851;28;20054;-78
2023/03/08 03:46:17;;;;;;;6.68;4.85;;;;;;;-2.13;100.00;99191.31;4988182;28;20526;-79
2023/03/08 03:48:43;;;;;;;7.43;5.28;;;;;;;-2.10;100.00;99195.66;4988819;28;20526;-82
2023/03/08 03:51:14;;;;;;;9.70;5.05;;;;;;;-2.08;100.00;99194.84;4988999;28;20080;-86
2023/03/08 03:53:41;;;;;;;8.85;4.82;;;;;;;-2.03;100.00;99198.34;4988138;28;20042;-79
2023/03/08 03:56:19;;;;;;;7.22;4.35;;;;;;;-2.03;100.00;99200.91;4988825;28;20046;-78
2023/03/08 03:58:46;;;;;;;6.80;4.53;;;;;;;-2.04;100.00;99199.19;4991416;28;20045;-80
2023/03/08 04:01:26;;;;;;;8.50;5.28;;;;;;;-2.08;100.00;99192.28;4974563;28;20045;-74
2023/03/08 04:03:55;;;;;;;9.23;5.63;;;;;;;-2.14;100.00;99191.31;4988239;28;20038;-74
2023/03/08 04:06:31;;;;;;;8.10;4.35;;;;;;;-2.20;100.00;99184.38;4991581;28;20042;-75
2023/03/08 04:09:02;;;;;;;6.43;4.55;;;;;;;-2.24;100.00;99203.06;4989600;28;20132;-80
2023/03/08 04:11:34;;;;;;;5.20;3.90;;;;;;;-2.22;100.00;99193.72;4987953;28;20046;-76
2023/03/08 04:14:01;;;;;;;5.60;4.15;;;;;;;-2.26;100.00;99191.94;4991304;28;20377;-82
2023/03/08 04:16:31;;;;;;;8.48;4.70;;;;;;;-2.22;100.00;99201.41;5007181;28;20088;-75
2023/03/08 04:19:09;;;;;;;7.25;4.28;;;;;;;-2.27;100.00;99197.91;4994162;28;20042;-78
2023/03/08 04:21:36;;;;;;;7.07;3.97;;;;;;;-2.31;100.00;99203.81;4990500;28;20065;-79
2023/03/08 04:24:03;;;;;;;7.93;5.20;;;;;;;-2.31;100.00;99202.09;5008835;28;20092;-82
2023/03/08 04:26:30;;;;;;;9.13;5.43;;;;;;;-2.33;100.00;99202.06;4991866;28;20060;-84
2023/03/08 04:28:56;;;;;;;7.80;5.13;;;;;;;-2.34;100.00;99204.59;5001948;28;20054;-81
2023/03/08 04:31:27;;;;;;;10.15;5.78;;;;;;;-2.38;100.00;99206.22;5009405;28;20095;-78
2023/03/08 04:33:54;;;;;;;7.10;4.90;;;;;;;-2.41;100.00;99197.63;4995261;28;20112;-75
2023/03/08 04:36:22;;;;;;;7.93;4.53;;;;;;;-2.48;100.00;99194.06;4997080;28;20157;-80
2023/03/08 04:38:49;;;;;;;12.48;5.10;;;;;;;-2.48;100.00;99195.78;4991613;28;20473;-76
2023/03/08 04:41:16;;;;;;;9.85;4.90;;;;;;;-2.53;100.00;99201.69;4993934;28;20042;-77
2023/03/08 04:43:52;;;;;;;7.22;4.88;;;;;;;-2.50;100.00;99200.88;4995131;28;20053;-75
2023/03/08 04:46:22;;;;;;;6.70;4.60;;;;;;;-2.51;100.00;99205.13;5009854;28;20064;-74
2023/03/08 04:48:51;;;;;;;9.07;5.45;;;;;;;-2.45;100.00;99199.28;4998670;28;20049;-75
2023/03/08 04:51:19;;;;;;;9.57;5.53;;;;;;;-2.43;100.00;99192.47;4992691;28;20493;-82
2023/03/08 04:53:46;;;;;;;7.75;5.30;;;;;;;-2.47;100.00;99185.56;5008648;28;20224;-76
2023/03/08 04:56:16;;;;;;;12.25;6.60;;;;;;;-2.52;100.00;99193.13;4991409;28;20030;-79
2023/03/08 04:58:43;;;;;;;8.98;5.60;;;;;;;-2.56;100.00;99190.50;4963532;28;20069;-81
2023/03/08 05:01:19;;;;;;;7.57;5.05;;;;;;;-2.57;100.00;99197.34;4975258;28;20050;-78
2023/03/08 05:03:48;;;;;;;9.45;5.00;;;;;;;-2.51;100.00;99196.59;5005891;28;20561;-75
2023/03/08 05:06:14;;;;;;;11.65;5.25;;;;;;;-2.46;100.00;99199.22;4979150;28;20076;-79
2023/03/08 05:08:44;;;;;;;7.53;4.22;;;;;;;-2.40;100.00;99195.09;4993344;28;20052;-78
2023/03/08 05:11:33;;;;;;;9.95;4.85;;;;;;;-2.37;100.00;99194.31;4994402;28;20048;-82
2023/03/08 05:14:00;;;;;;;8.07;5.25;;;;;;;-2.40;100.00;99194.22;5008484;28;20480;-79
2023/03/08 05:16:26;;;;;;;8.07;5.05;;;;;;;-2.45;100.00;99199.28;4995308;28;20041;-82
2023/03/08 05:18:53;;;;;;;8.00;5.13;;;;;;;-2.40;100.00;99191.66;5012223;28;20034;-77
2023/03/08 05:21:22;;;;;;;8.07;5.10;;;;;;;-2.39;100.00;99201.09;4996300;28;20060;-79
2023/03/08 05:23:49;;;;;;;6.28;4.90;;;;;;;-2.43;100.00;99189.06;5002607;28;20060;-77
2023/03/08 05:26:18;;;;;;;12.82;5.07;;;;;;;-2.47;100.00;99183.00;4992356;28;20030;-77
2023/03/08 05:28:45;;;;;;;7.13;4.25;;;;;;;-2.51;100.00;99182.06;5005993;28;20066;-74
2023/03/08 05:31:18;;;;;;;10.23;4.78;;;;;;;-2.51;100.00;99171.81;4992442;28;20046;-76
2023/03/08 05:33:48;;;;;;;5.72;4.10;;;;;;;-2.53;100.00;99177.75;5010865;28;20132;-74
2023/03/08 05:36:15;;;;;;;8.23;4.20;;;;;;;-2.54;100.00;99168.34;4973993;28;20124;-85
2023/03/08 05:38:42;;;;;;;6.68;4.25;;;;;;;-2.53;100.00;99160.69;4992025;28;20137;-77
2023/03/08 05:41:13;;;;;;;8.02;4.45;;;;;;;-2.47;100.00;99157.38;4990289;28;20124;-78
2023/03/08 05:43:42;;;;;;;8.18;5.07;;;;;;;-2.44;100.00;99156.56;4995725;28;20073;-76
2023/03/08 05:46:18;;;;;;;6.35;4.90;;;;;;;-2.43;100.00;99145.50;4991809;28;20120;-75
2023/03/08 05:48:44;;;;;;;5.28;4.15;;;;;;;-2.41;100.00;99134.44;4992874;28;20058;-78
2023/03/08 05:51:16;;;;;;;5.38;4.07;;;;;;;-2.36;100.00;99139.63;4991942;28;20052;-75
2023/03/08 05:53:44;;;;;;;7.15;4.20;;;;;;;-2.35;100.00;99138.78;4992181;28;20034;-76
2023/03/08 05:56:20;;;;;;;5.88;4.43;;;;;;;-2.29;100.00;99141.47;4991980;28;20120;-83
2023/03/08 05:58:46;;;;;;;9.93;4.95;;;;;;;-2.22;100.00;99139.88;4991385;28;20073;-77
2023/03/08 06:01:19;;;;;;;7.38;4.70;;;;;;;-2.19;100.00;99145.06;4991119;28;20046;-79
2023/03/08 06:03:51;;;;;;;5.67;4.10;;;;;;;-2.18;100.00;99142.56;4986963;28;20034;-80
2023/03/08 06:06:24;;;;;;;6.75;4.70;;;;;;;-2.12;100.00;99146.91;4988942;28;20046;-76
2023/03/08 06:08:51;;;;;;;8.48;5.15;;;;;;;-2.09;100.00;99146.09;4993772;28;20104;-78
2023/03/08 06:11:19;;;;;;;8.40;5.10;;;;;;;-2.07;100.00;99149.56;4993250;28;20062;-78
2023/03/08 06:13:48;;;;;;;10.80;4.40;;;;;;;-2.03;100.00;99151.34;4976359;28;20041;-79
2023/03/08 06:16:15;;;;;;;8.80;5.05;;;;;;;-2.03;100.00;99152.19;4993156;28;20446;-75
2023/03/08 06:18:44;;;;;;;8.88;4.82;;;;;;;-1.99;100.00;99158.25;5008829;28;20038;-78
2023/03/08 06:21:17;;;;;;;5.70;4.65;;;;;;;-1.96;100.00;99158.28;4992670;28;20045;-78
2023/03/08 06:23:45;;;;;;;7.53;4.38;;;;;;;-1.90;100.00;99165.25;4997679;28;20046;-78
2023/03/08 06:26:12;;;;;;;8.50;4.10;;;;;;;-1.82;100.00;99161.09;4995590;28;20677;-78
2023/03/08 06:28:39;;;;;;;6.65;4.75;;;;;;;-1.69;100.00;99157.03;4993947;28;20045;-75
2023/03/08 06:31:06;;;;;;;8.15;5.25;;;;;;;-1.57;100.00;99153.81;4990762;28;20048;-89
2023/03/08 06:33:34;;;;;;;7.28;4.55;;;;;;;-1.46;100.00;99159.09;5010761;28;20029;-81
2023/03/08 06:36:14;;;;;;;5.00;4.22;;;;;;;-1.37;100.00;99151.53;4987526;28;20050;-77
2023/03/08 06:38:45;;;;;;;7.38;5.30;;;;;;;-1.31;100.00;99150.78;4991723;28;20102;-83
2023/03/08 06:41:14;;;;;;;13.27;5.53;;;;;;;-1.29;100.00;99151.66;4990753;28;20041;-77
2023/03/08 06:43:44;;;;;;;8.18;5.40;;;;;;;-1.27;100.00;99150.84;4986685;28;20053;-80
2023/03/08 06:46:15;;;;;;;7.20;4.60;;;;;;;-1.24;100.00;99153.47;5006405;28;20061;-85
2023/03/08 06:48:42;;;;;;;10.38;5.35;;;;;;;-1.17;100.00;99154.41;4987216;28;20045;-77
2023/03/08 06:51:09;;;;;;;5.43;3.95;;;;;;;-1.13;100.00;99145.91;5007024;28;20460;-81
2023/03/08 06:53:36;;;;;;;7.53;4.93;;;;;;;-1.11;100.00;99146.78;4988519;28;20044;-81
2023/03/08 06:56:05;;;;;;;7.22;4.85;;;;;;;-1.06;100.00;99141.72;4991460;28;20064;-76
2023/03/08 06:58:33;;;;;;;10.48;4.43;;;;;;;-1.04;100.00;99143.47;4990432;28;20057;-79
2023/03/08 07:00:59;;;;;;;8.05;5.10;;;;;;;-0.97;100.00;99143.53;4977549;28;20144;-82
2023/03/08 07:03:27;;;;;;;7.97;5.68;;;;;;;-0.96;100.00;99138.44;5008215;28;20139;-86
2023/03/08 07:06:03;;;;;;;6.68;4.78;;;;;;;-0.92;100.00;99141.91;4991735;28;20060;-81
2023/03/08 07:08:30;;;;;;;8.60;4.97;;;;;;;-0.87;100.00;99140.25;5010810;28;20053;-81
2023/03/08 07:10:57;;;;;;;7.35;5.00;;;;;;;-0.79;100.00;99140.34;4993624;28;20574;-77
2023/03/08 07:13:23;;;;;;;10.02;5.38;;;;;;;-0.74;100.00;99142.13;4976967;28;20493;-78
2023/03/08 07:15:51;;;;;;;10.85;4.70;;;;;;;-0.69;100.00;99130.19;4991113;28;20405;-76
2023/03/08 07:18:19;;;;;;;7.00;4.47;;;;;;;-0.63;100.00;99125.97;4993087;28;20073;-77
2023/03/08 07:20:45;;;;;;;7.90;4.90;;;;;;;-0.59;100.00;99125.16;4991334;28;20072;-77
2023/03/08 07:23:12;;;;;;;9.55;5.80;;;;;;;-0.58;100.00;99111.47;4991374;28;20811;-77
2023/03/08 07:25:39;;;;;;;10.43;5.50;;;;;;;-0.52;100.00;99119.25;4969406;28;20103;-84
2023/03/08 07:28:10;;;;;;;8.60;5.47;;;;;;;-0.44;100.00;99112.47;4992757;28;20111;-76
2023/03/08 07:30:39;;;;;;;9.30;5.90;;;;;;;-0.32;100.00;99109.19;4986665;28;20405;-82
2023/03/08 07:33:06;;;;;;;6.72;4.72;;;;;;;-0.19;100.00;99103.28;5001672;28;20042;-78
2023/03/08 07:35:32;;;;;;;7.40;5.57;;;;;;;0.04;100.00;99109.50;5001103;28;20044;-78
2023/03/08 07:37:59;;;;;;;10.57;5.20;;;;;;;0.27;100.00;99107.97;4989786;28;20050;-79
2023/03/08 07:40:25;;;;;;;8.93;6.05;;;;;;;0.49;100.00;99100.41;5007937;28;20046;-77
2023/03/08 07:42:52;;;;;;;12.82;5.90;;;;;;;0.59;100.00;99088.47;5003469;28;20054;-77
2023/03/08 07:45:19;;;;;;;7.85;5.85;;;;;;;0.60;100.00;99092.75;4990892;28;20050;-80
2023/03/08 07:47:45;;;;;;;10.57;6.50;;;;;;;0.58;100.00;99091.91;5008737;28;20080;-75
2023/03/08 07:50:12;;;;;;;9.65;6.50;;;;;;;0.59;100.00;99091.91;4990371;28;20045;-76
2023/03/08 07:52:38;;;;;;;10.23;6.03;;;;;;;0.56;100.00;99088.44;5005356;28;20469;-79
2023/03/08 07:55:06;;;;;;;13.05;7.45;;;;;;;0.61;100.00;99090.22;4994576;28;20046;-79
2023/03/08 07:57:32;;;;;;;13.73;7.82;;;;;;;0.67;100.00;99089.38;4991035;28;20044;-77
2023/03/08 07:59:59;;;;;;;10.05;7.45;;;;;;;0.69;100.00;99085.06;4987311;28;20416;-77
2023/03/08 08:02:25;;;;;;;11.23;7.70;;;;;;;0.74;100.00;99095.41;4988705;28;20109;-81
2023/03/08 08:04:52;;;;;;;10.70;7.30;;;;;;;0.78;100.00;99089.44;4988405;28;20890;-80
2023/03/08 08:07:18;;;;;;;10.35;7.32;;;;;;;0.79;100.00;99091.16;4986812;28;20061;-77
2023/03/08 08:09:45;;;;;;;12.35;8.20;;;;;;;0.86;100.00;99092.94;4992674;28;20053;-75
2023/03/08 08:12:11;;;;;;;13.40;8.77;;;;;;;0.92;100.00;99089.50;5010356;28;20065;-79
2023/03/08 08:14:38;;;;;;;13.60;8.20;;;;;;;1.01;100.00;99079.25;4985440;28;20038;-77
2023/03/08 08:17:05;;;;;;;14.45;10.05;;;;;;;1.09;100.00;99087.00;4985806;28;20030;-83
2023/03/08 08:19:32;;;;;;;12.07;7.88;;;;;;;1.17;99.73;99081.88;4987903;28;20073;-78
2023/03/08 08:21:58;;;;;;;12.75;7.88;;;;;;;1.20;99.47;99082.75;5005102;28;20126;-78
2023/03/08 08:24:25;;;;;;;12.02;7.88;;;;;;;1.26;99.05;99087.06;4986797;28;20041;-75
2023/03/08 08:26:52;;;;;;;13.35;7.82;;;;;;;1.24;98.63;99086.19;5002787;28;20547;-80
2023/03/08 08:29:19;;;;;;;13.25;7.80;;;;;;;1.21;98.65;99089.59;4972588;28;20388;-78
2023/03/08 08:31:45;;;;;;;11.18;7.88;;;;;;;1.19;97.73;99088.75;5004433;28;20042;-77
2023/03/08 08:34:11;;;;;;;12.48;8.13;;;;;;;1.13;97.22;99081.88;5003940;28;20061;-79
2023/03/08 08:36:38;;;;;;;13.25;8.95;;;;;;;1.06;98.27;99079.28;4982462;28;20038;-86
2023/03/08 08:39:04;;;;;;;13.88;7.82;;;;;;;1.07;98.66;99076.69;4985070;28;20049;-76
2023/03/08 08:41:31;;;;;;;16.30;8.18;;;;;;;1.16;98.50;99075.84;5003770;28;20042;-81
2023/03/08 08:43:59;;;;;;;13.32;9.18;;;;;;;1.15;96.48;99079.31;4985750;28;20052;-79
2023/03/08 08:46:27;;;;;;;15.43;7.80;;;;;;;1.18;97.30;99081.88;4986186;28;20052;-76
2023/03/08 08:48:55;;;;;;;10.20;6.88;;;;;;;1.20;96.72;99079.31;5004735;28;20046;-76
2023/03/08 08:51:22;;;;;;;17.05;8.32;;;;;;;1.26;96.75;99075.03;4973969;28;20053;-83
2023/03/08 08:53:50;;;;;;;13.88;8.88;;;;;;;1.36;97.56;99073.34;4991151;28;20133;-78
2023/03/08 08:56:25;;;;;;;12.45;7.35;;;;;;;1.49;96.53;99075.09;4987246;28;20552;-79
2023/03/08 08:58:52;;;;;;;15.73;9.38;;;;;;;1.52;96.29;99070.81;4988586;28;20055;-79
2023/03/08 09:01:22;;;;;;;10.35;7.82;;;;;;;1.46;94.90;99071.63;5005711;28;20129;-86
2023/03/08 09:03:49;;;;;;;17.30;9.30;;;;;;;1.50;94.58;99070.81;4990188;28;20048;-82
2023/03/08 09:06:20;;;;;;;12.57;8.07;;;;;;;1.50;94.76;99065.66;4968572;28;20049;-80
2023/03/08 09:08:55;;;;;;;16.55;8.23;;;;;;;1.49;94.31;99063.94;4987099;28;20050;-78
2023/03/08 09:11:22;;;;;;;13.25;8.77;;;;;;;1.57;94.92;99057.06;4996451;28;20143;-75
2023/03/08 09:13:49;;;;;;;14.85;8.68;;;;;;;1.68;93.59;99051.91;4991816;28;20682;-76
2023/03/08 09:16:25;;;;;;;11.90;8.05;;;;;;;1.67;92.71;99054.50;4991757;28;20694;-76
2023/03/08 09:18:52;;;;;;;12.50;8.30;;;;;;;1.75;93.28;99050.22;5005605;28;20042;-76
2023/03/08 09:21:19;;;;;;;14.50;9.10;;;;;;;1.84;92.73;99039.91;4992451;28;20101;-81
2023/03/08 09:23:46;;;;;;;14.52;8.95;;;;;;;2.04;93.19;99039.03;4993634;28;20045;-75
2023/03/08 09:26:12;;;;;;;14.02;9.13;;;;;;;2.25;92.31;99035.56;5009049;28;20037;-76
2023/03/08 09:28:39;;;;;;;15.10;9.35;;;;;;;2.30;91.14;99033.84;4990616;28;20053;-79
2023/03/08 09:31:13;;;;;;;14.82;9.45;;;;;;;2.40;90.74;99029.50;4976437;28;20395;-83
2023/03/08 09:33:58;;;;;;;19.50;9.65;;;;;;;2.41;89.41;99024.38;5001284;28;20535;-76
2023/03/08 09:36:27;;;;;;;17.75;10.00;;;;;;;2.34;88.92;99014.91;4986540;28;20069;-82
2023/03/08 09:38:53;;;;;;;13.35;9.20;;;;;;;2.23;88.49;99007.19;4989297;28;20042;-80
2023/03/08 09:41:36;;;;;;;18.05;10.07;;;;;;;2.22;89.74;99000.28;4986552;28;20053;-77
2023/03/08 09:44:44;;;;;;;13.70;8.50;;;;;;;2.30;89.14;98998.56;5005318;28;20057;-76
2023/03/08 09:47:34;;;;;;;13.75;9.13;;;;;;;2.15;89.10;98993.41;5004566;28;20034;-76
2023/03/08 09:50:14;;;;;;;15.55;9.93;;;;;;;2.25;89.55;99000.28;4991860;28;20400;-78
2023/03/08 09:52:59;;;;;;;14.93;8.68;;;;;;;2.37;89.02;98996.81;5005868;28;20053;-79
2023/03/08 09:55:33;;;;;;;16.27;10.50;;;;;;;2.28;88.36;98994.25;4989070;28;20050;-78
2023/03/08 09:58:05;;;;;;;17.23;10.60;;;;;;;2.23;88.09;98991.69;4987676;28;20561;-78
2023/03/08 10:00:36;;;;;;;14.23;8.48;;;;;;;2.21;88.70;98982.22;4979619;28;20484;-81
2023/03/08 10:03:27;;;;;;;20.02;10.23;;;;;;;2.26;88.73;98972.75;5006115;28;20053;-78
2023/03/08 10:06:15;;;;;;;17.10;9.80;;;;;;;2.29;88.49;98968.44;5010176;28;20055;-76
2023/03/08 10:09:24;;;;;;;14.70;11.05;;;;;;;2.44;88.75;98970.13;5005538;28;20508;-78
2023/03/08 10:12:32;;;;;;;16.92;8.80;;;;;;;2.37;87.52;98959.81;5005920;28;20377;-77
2023/03/08 10:15:09;;;;;;;13.90;8.98;;;;;;;2.49;87.70;98954.63;5003117;28;20114;-76
2023/03/08 10:18:12;;;;;;;15.27;9.63;;;;;;;2.63;87.23;98949.38;4973880;28;20042;-77
2023/03/08 10:20:41;;;;;;;14.35;10.07;;;;;;;2.73;87.70;98945.03;4987616;28;20053;-76
2023/03/08 10:23:17;;;;;;;16.98;9.80;;;;;;;2.64;85.37;98941.63;4990889;28;20060;-80
2023/03/08 10:25:44;;;;;;;16.48;10.73;;;;;;;2.46;86.39;98942.56;4991743;28;20038;-80
2023/03/08 10:28:21;;;;;;;17.60;10.35;;;;;;;2.43;87.33;98937.41;4992380;28;20108;-76
2023/03/08 10:30:59;;;;;;;17.20;10.82;;;;;;;2.53;87.20;98945.09;5005581;28;20121;-80
2023/03/08 10:33:32;;;;;;;19.90;10.93;;;;;;;2.63;87.11;98934.75;4993442;28;20057;-77
2023/03/08 10:36:05;;;;;;;17.45;10.68;;;;;;;2.91;86.87;98944.09;5007396;28;20048;-76
2023/03/08 10:38:35;;;;;;;17.00;11.45;;;;;;;3.14;86.64;98931.88;4992047;28;20939;-77
2023/03/08 10:41:11;;;;;;;15.90;9.40;;;;;;;3.35;85.10;98929.16;4993122;28;20046;-76
2023/03/08 10:43:51;;;;;;;16.27;10.60;;;;;;;3.41;83.20;98924.78;4988498;28;20081;-79
2023/03/08 10:46:21;;;;;;;16.15;10.40;;;;;;;3.26;83.42;98925.75;5006269;28;20054;-82
2023/03/08 10:48:48;;;;;;;15.40;9.40;;;;;;;3.14;83.43;98921.53;4975522;28;20517;-78
2023/03/08 10:51:27;;;;;;;15.50;8.93;;;;;;;3.27;83.72;98922.31;4990455;28;20049;-79
2023/03/08 10:53:58;;;;;;;15.70;9.30;;;;;;;3.39;84.13;98913.59;4989702;28;20037;-78
2023/03/08 10:56:54;;;;;;;17.55;11.20;;;;;;;3.56;83.41;98915.19;4989842;28;20862;-80
2023/03/08 10:59:28;;;;;;;17.98;10.85;;;;;;;3.65;82.78;98907.38;4980619;28;20060;-78
2023/03/08 11:01:57;;;;;;;;;;;;;;;3.63;81.74;98909.09;4993737;28;20059;-80
2023/03/08 11:04:26;;;;;;;16.90;9.50;;;;;;;3.49;82.74;98906.63;4991734;28;19921;-76
2023/03/08 11:06:53;;;;;;;19.35;10.52;;;;;;;3.23;82.58;98905.09;5008793;28;20685;-77
2023/03/08 11:09:30;;;;;;;19.20;11.18;;;;;;;3.20;83.57;98906.84;4992201;28;20488;-79
2023/03/08 11:11:59;;;;;;;15.43;9.68;;;;;;;3.25;83.60;98890.44;4991503;28;20046;-76
2023/03/08 11:14:28;;;;;;;14.13;9.60;;;;;;;3.19;83.41;98903.38;4993512;28;20519;-76
2023/03/08 11:17:05;;;;;;;15.20;10.40;;;;;;;3.23;83.60;98905.09;4992929;28;20073;-80
2023/03/08 11:20:13;;;;;;;11.07;8.55;;;;;;;3.12;84.38;98906.91;5003855;28;20052;-78
2023/03/08 11:23:13;;;;;;;11.30;7.38;;;;;;;3.12;83.44;98900.00;5006348;28;20044;-84
2023/03/08 11:26:24;;;;;;;11.68;8.10;;;;;;;3.00;83.48;98902.69;4991773;28;20469;-75
2023/03/08 11:29:06;;;;;;;14.68;10.02;;;;;;;3.02;84.61;98906.09;4910066;29;20067;-77
2023/03/08 11:32:03;;;;;;;15.52;9.45;;;;;;;3.09;83.79;98905.19;4998356;28;20378;-78
2023/03/08 11:35:01;;;;;;;17.27;9.23;;;;;;;3.23;84.11;98902.50;5007242;28;20033;-76
2023/03/08 11:37:38;;;;;;;12.65;9.38;;;;;;;3.33;83.18;98897.28;4991698;28;20850;-75
2023/03/08 11:40:24;;;;;;;15.55;9.43;;;;;;;3.42;83.65;98897.19;5009213;28;20515;-76
2023/03/08 11:43:07;;;;;;;12.77;8.40;;;;;;;3.39;82.69;98892.91;4992188;28;20050;-76